Latest Coastal Weather Observations for Alva Beach

IDQ60701

Issued at 6:02 pm EST Wednesday 8 February 2023 (issued every 10 minutes, with the page automatically refreshed every 10 minutes)

About coastal observations | Map of coastal stations | Coastal observations for QLD | Marine services | Other Formats
Station Details ID: 033295 Name: ALVA BEACH Lat: -19.46 Lon: 147.48 Height: 7.5 m
Data from the previous 72 hours. | See also: Recent months at Alva Beach
Date/Time
EST
Wind Sea
Height
m
Swell Vis
km
Cloud Weather Temp
°C
Press
MSL
hPa
Rain since
9am
mm
Dir  Spd
kts
Gust
kts
Height
m
Period
s
Dir
08/06:00pm ESE 11 17 - - - - - - - 29.2 1001.9 0.0
08/05:30pm ESE 12 17 - - - - - - - 29.6 1001.8 0.0
08/05:00pm ESE 11 16 - - - - - - - 29.8 1001.9 0.0
08/04:30pm E 11 17 - - - - - - - 29.8 1001.9 0.0
08/04:00pm ESE 12 19 - - - - - - - 29.5 1001.9 0.0
08/03:30pm ESE 9 16 - - - - - - - 30.0 1002.0 0.0
08/03:00pm ESE 11 15 - - - - - - - 30.1 1002.3 0.0
08/02:30pm E 12 19 - - - - - - - 29.3 1002.5 0.0
08/02:00pm E 11 15 - - - - - - - 29.6 1003.0 0.0
08/01:30pm ESE 9 14 - - - - - - - 30.5 1003.3 0.0
08/01:00pm ESE 8 12 - - - - - - - 29.9 1003.6 0.0
08/12:30pm ESE 9 13 - - - - - - - 30.6 1004.0 0.0
08/12:00pm ESE 8 12 - - - - - - - 30.4 1004.3 0.0
08/11:30am SE 8 13 - - - - - - - 30.2 1004.7 0.0
08/11:00am SSE 8 14 - - - - - - - 30.1 1005.0 0.0
08/10:30am SSE 7 12 - - - - - - - 29.8 1005.3 0.0
08/10:00am SE 6 12 - - - - - - - 29.6 1005.6 0.0
08/09:30am SSE 6 10 - - - - - - - 28.9 1005.7 0.0
08/09:00am SSE 6 13 - - - - - - - 28.5 1005.8 3.0
08/08:30am SSE 5 8 - - - - - - - 28.1 1005.8 3.0
08/08:00am SSE 6 10 - - - - - - - 26.8 1005.9 3.0
08/07:30am SSE 6 12 - - - - - - - 26.6 1005.7 3.0
08/07:00am S 5 11 - - - - - - - 25.7 1005.2 3.0
08/06:30am S 5 9 - - - - - - - 25.0 1005.0 3.0
08/06:00am S 5 8 - - - - - - - 24.8 1004.4 3.0
08/05:30am S 5 9 - - - - - - - 24.9 1004.3 3.0
08/05:00am SSW 6 9 - - - - - - - 24.9 1004.2 3.0
08/04:30am S 5 9 - - - - - - - 25.0 1004.3 3.0
08/04:00am SSW 5 7 - - - - - - - 25.3 1004.4 3.0
08/03:30am S 6 9 - - - - - - - 25.6 1004.5 3.0
08/03:00am SE 5 11 - - - - - - Rain 25.9 1004.6 2.4
08/02:30am S 5 8 - - - - - - - 26.2 1004.5 0.8
08/02:00am SE 9 17 - - - - - - - 26.6 1004.7 0.8
08/01:30am SE 7 11 - - - - - - - 26.4 1005.2 0.8
08/01:00am SE 8 15 - - - - - - - 26.8 1005.7 0.4
08/12:30am SSE 5 8 - - - - - - - 26.4 1006.1 0.4
08/12:00am SSE 6 13 - - - - - - - 26.9 1006.6 0.4
 
Date/Time
EST
Wind Sea
Height
m
Swell Vis
km
Cloud Weather Temp
°C
Press
MSL
hPa
Rain since
9am
mm
Dir  Spd
kts
Gust
kts
Height
m
Period
s
Dir
07/11:30pm SSE 5 9 - - - - - - - 27.7 1006.8 0.4
07/11:00pm SE 7 14 - - - - - - - 28.2 1007.0 0.4
07/10:30pm SE 9 15 - - - - - - - 28.2 1007.1 0.4
07/10:00pm SE 9 17 - - - - - - - 28.3 1007.3 0.4
07/09:30pm ESE 10 17 - - - - - - - 28.4 1007.2 0.4
07/09:00pm ESE 10 18 - - - - - - - 28.4 1007.0 0.4
07/08:30pm ESE 11 17 - - - - - - - 28.7 1006.6 0.4
07/08:00pm ESE 14 23 - - - - - - - 28.9 1006.3 0.4
07/07:30pm ESE 15 22 - - - - - - - 29.0 1005.9 0.4
07/07:00pm E 11 19 - - - - - - - 28.9 1005.5 0.4
07/06:30pm E 12 18 - - - - - - - 28.9 1005.2 0.4
07/06:00pm E 10 16 - - - - - - - 29.1 1005.0 0.4
07/05:30pm E 11 16 - - - - - - - 29.3 1004.7 0.4
07/05:00pm SE 9 14 - - - - - - - 29.0 1004.7 0.4
07/04:30pm SE 10 18 - - - - - - - 29.1 1005.0 0.4
07/04:00pm ESE 12 18 - - - - - - - 30.2 1005.0 0.4
07/03:30pm E 10 14 - - - - - - - 30.4 1005.1 0.4
07/03:00pm ESE 9 14 - - - - - - - 30.1 1005.4 0.4
07/02:30pm E 10 16 - - - - - - - 30.7 1005.6 0.4
07/02:00pm E 10 15 - - - - - - - 31.0 1005.5 0.4
07/01:30pm ESE 10 14 - - - - - - - 30.4 1006.1 0.4
07/01:00pm E 7 12 - - - - - - - 30.2 1006.6 0.4
07/12:30pm ESE 7 11 - - - - - - - 29.8 1006.9 0.2
07/12:00pm SE 7 13 - - - - - - - 27.9 1007.4 0.2
07/11:30am E 13 20 - - - - - - - 27.5 1007.9 0.2
07/11:00am ESE 8 13 - - - - - - - 30.3 1007.9 0.2
07/10:30am ESE 8 13 - - - - - - - 30.4 1007.9 0.2
07/10:00am SE 7 12 - - - - - - - 29.9 1008.0 0.2
07/09:30am ESE 6 10 - - - - - - - 29.9 1008.1 0.0
07/09:00am SE 6 10 - - - - - - - 29.4 1008.1 2.0
07/08:30am SSE 4 8 - - - - - - - 28.8 1008.1 2.0
07/08:00am S 4 6 - - - - - - - 27.9 1008.0 2.0
07/07:30am S 5 9 - - - - - - - 26.8 1007.6 2.0
07/07:00am S 5 9 - - - - - - - 26.0 1007.5 2.0
07/06:30am S 5 7 - - - - - - - 25.3 1007.1 2.0
07/06:00am SSW 4 6 - - - - - - - 25.2 1006.9 2.0
07/05:30am SW 4 6 - - - - - - - 25.4 1006.8 2.0
07/05:00am SSW 4 6 - - - - - - - 25.5 1006.6 2.0
07/04:30am SSE 5 7 - - - - - - - 25.4 1006.5 2.0
07/04:00am SE 6 10 - - - - - - - 25.5 1006.9 2.0
07/03:30am S 4 6 - - - - - - - 25.5 1006.6 2.0
07/03:00am SSE 5 10 - - - - - - Rain 25.8 1006.6 2.0
07/02:30am S 4 6 - - - - - - - 25.9 1006.7 1.6
07/02:00am SSW 4 6 - - - - - - - 25.8 1006.9 1.6
07/01:30am SW 3 5 - - - - - - - 26.1 1007.5 1.6
07/01:00am SSW 4 7 - - - - - - - 26.4 1007.7 1.6
07/12:30am SSW 4 7 - - - - - - - 26.6 1007.9 1.6
07/12:00am S 4 7 - - - - - - - 27.2 1008.4 1.6
 
Date/Time
EST
Wind Sea
Height
m
Swell Vis
km
Cloud Weather Temp
°C
Press
MSL
hPa
Rain since
9am
mm
Dir  Spd
kts
Gust
kts
Height
m
Period
s
Dir
06/11:30pm SE 7 12 - - - - - - - 27.9 1008.7 1.6
06/11:00pm SE 7 12 - - - - - - - 27.9 1008.8 1.6
06/10:30pm ENE 7 11 - - - - - - - 28.1 1009.0 1.6
06/10:00pm E 10 20 - - - - - - - 27.5 1009.0 1.6
06/09:30pm E 9 12 - - - - - - - 28.8 1009.1 0.2
06/09:00pm E 10 14 - - - - - - - 29.0 1008.7 0.2
06/08:30pm E 10 14 - - - - - - - 29.1 1008.5 0.2
06/08:00pm E 11 16 - - - - - - - 28.8 1008.1 0.2
06/07:30pm E 10 14 - - - - - - - 28.9 1007.7 0.2
06/07:00pm E 10 14 - - - - - - - 29.0 1007.4 0.2
06/06:30pm E 10 13 - - - - - - - 29.0 1007.3 0.2
06/06:00pm ENE 13 17 - - - - - - - 29.2 1007.1 0.2
06/05:30pm E 11 16 - - - - - - - 29.4 1007.1 0.2
06/05:00pm E 11 16 - - - - - - - 29.8 1007.1 0.2
06/04:30pm E 11 15 - - - - - - - 29.8 1007.1 0.2
06/04:00pm E 10 15 - - - - - - - 29.7 1007.3 0.2
06/03:30pm E 11 16 - - - - - - - 30.4 1007.3 0.2
06/03:00pm E 11 17 - - - - - - - 30.5 1007.6 0.2
06/02:30pm E 11 17 - - - - - - - 30.8 1007.6 0.2
06/02:00pm E 10 15 - - - - - - - 30.7 1007.8 0.2
06/01:30pm E 8 12 - - - - - - - 29.7 1008.2 0.2
06/01:00pm ESE 12 19 - - - - - - - 29.2 1008.4 0.2
06/12:30pm E 10 14 - - - - - - - 30.9 1008.5 0.0
06/12:00pm E 10 15 - - - - - - - 30.5 1008.9 0.0
06/11:30am E 10 15 - - - - - - - 30.4 1009.3 0.0
06/11:00am ESE 10 15 - - - - - - - 29.5 1009.5 0.0
06/10:30am E 10 15 - - - - - - - 30.0 1009.8 0.0
06/10:00am ESE 10 14 - - - - - - - 29.0 1009.9 0.0
06/09:30am E 11 16 - - - - - - - 30.1 1009.9 0.0
06/09:00am E 9 14 - - - - - - - 30.0 1009.9 8.4
06/08:30am ESE 9 13 - - - - - - - 29.9 1009.9 8.4
06/08:00am SE 7 11 - - - - - - - 28.7 1009.7 8.4
06/07:30am SE 4 7 - - - - - - - 27.6 1009.7 8.4
06/07:00am S 4 6 - - - - - - - 26.8 1009.7 8.4
06/06:30am SSE 4 6 - - - - - - - 26.5 1009.3 8.4
06/06:00am SSE 5 10 - - - - - - - 26.5 1008.8 8.4
06/05:30am SE 7 12 - - - - - - - 27.0 1008.5 8.4
06/05:00am ESE 8 14 - - - - - - - 28.0 1008.2 8.4
06/04:30am E 8 12 - - - - - - - 27.9 1007.9 8.4
06/04:00am ESE 9 14 - - - - - - - 27.8 1007.8 8.4
06/03:30am ESE 10 14 - - - - - - - 27.6 1007.6 8.4
06/03:00am E 9 13 - - - - - - - 28.4 1007.5 5.0
06/02:30am E 11 16 - - - - - - - 28.4 1007.6 5.0
06/02:00am E 11 15 - - - - - - - 28.5 1007.7 5.0
06/01:30am E 10 13 - - - - - - - 28.4 1007.9 5.0
06/01:00am E 10 16 - - - - - - - 28.5 1008.1 5.0
06/12:30am E 11 15 - - - - - - - 28.5 1008.3 5.0
06/12:00am E 9 13 - - - - - - - 27.9 1008.8 5.0
 
Date/Time
EST
Wind Sea
Height
m
Swell Vis
km
Cloud Weather Temp
°C
Press
MSL
hPa
Rain since
9am
mm
Dir  Spd
kts
Gust
kts
Height
m
Period
s
Dir
05/11:30pm ESE 12 17 - - - - - - - 27.5 1009.0 5.0
05/11:00pm ENE 11 17 - - - - - - - 28.4 1008.8 5.0
05/10:30pm E 11 19 - - - - - - - 27.5 1008.9 4.8
05/10:00pm E 9 17 - - - - - - - 28.3 1008.7 1.8
05/09:30pm ENE 14 28 - - - - - - - 26.9 1008.6 1.8
05/09:18pm ENE 15 25 - - - - - - - 28.4 1008.4 0.2
05/09:00pm E 11 14 - - - - - - - 29.2 1008.3 0.2
05/08:30pm ENE 13 17 - - - - - - - 29.2 1008.1 0.2
05/08:00pm ENE 12 16 - - - - - - - 29.2 1007.6 0.2
05/07:30pm ENE 14 19 - - - - - - - 29.2 1007.2 0.2
05/07:00pm ENE 11 15 - - - - - - - 29.2 1007.0 0.2
05/06:30pm ENE 12 17 - - - - - - - 29.1 1006.4 0.2

Other formats

Comma delimited format used in spreadsheet applications
http://www.bom.gov.au/fwo/IDQ60701/IDQ60701.95296.axf

JavaScript Object Notation format (JSON) in row-major order
http://www.bom.gov.au/fwo/IDQ60701/IDQ60701.95296.json

Data quality

Most of these data are generated automatically and are frequently updated. Quality checks on data are not normally performed. It is possible for incorrect values to appear. Refer to information at About Latest Weather Observations and please check the disclaimer before using these data.